sensor_id;sensor_type;location;lat;lon;timestamp;temperature;humidity
44573;DHT22;31762;45.420;10.072;2022-09-17T00:02:55;22.50;99.90
44573;DHT22;31762;45.420;10.072;2022-09-17T00:07:57;22.50;99.90
44573;DHT22;31762;45.420;10.072;2022-09-17T00:12:59;22.50;99.90
44573;DHT22;31762;45.420;10.072;2022-09-17T00:18:00;22.40;99.90
44573;DHT22;31762;45.420;10.072;2022-09-17T00:23:02;22.50;99.90
44573;DHT22;31762;45.420;10.072;2022-09-17T00:28:04;22.30;99.90
44573;DHT22;31762;45.420;10.072;2022-09-17T00:33:06;22.30;99.90
44573;DHT22;31762;45.420;10.072;2022-09-17T00:38:08;22.10;99.90
44573;DHT22;31762;45.420;10.072;2022-09-17T00:43:10;22.20;99.90
44573;DHT22;31762;45.420;10.072;2022-09-17T00:48:20;21.90;99.90
44573;DHT22;31762;45.420;10.072;2022-09-17T00:53:22;21.60;99.90
44573;DHT22;31762;45.420;10.072;2022-09-17T00:58:25;21.60;99.90
44573;DHT22;31762;45.420;10.072;2022-09-17T01:03:27;21.40;99.90
44573;DHT22;31762;45.420;10.072;2022-09-17T01:14:12;21.50;99.90
44573;DHT22;31762;45.420;10.072;2022-09-17T01:31:02;21.10;99.90
44573;DHT22;31762;45.420;10.072;2022-09-17T01:47:42;20.90;99.90
44573;DHT22;31762;45.420;10.072;2022-09-17T01:52:22;20.70;99.90
44573;DHT22;31762;45.420;10.072;2022-09-17T01:57:30;20.60;99.90
44573;DHT22;31762;45.420;10.072;2022-09-17T02:02:39;20.80;99.90
44573;DHT22;31762;45.420;10.072;2022-09-17T02:07:45;20.70;99.90
44573;DHT22;31762;45.420;10.072;2022-09-17T02:12:58;20.70;99.90
44573;DHT22;31762;45.420;10.072;2022-09-17T02:23:24;20.50;99.90
44573;DHT22;31762;45.420;10.072;2022-09-17T02:28:45;20.30;99.90
44573;DHT22;31762;45.420;10.072;2022-09-17T02:33:50;20.50;99.90
44573;DHT22;31762;45.420;10.072;2022-09-17T02:38:58;20.50;99.90
44573;DHT22;31762;45.420;10.072;2022-09-17T02:55:36;20.70;99.90
44573;DHT22;31762;45.420;10.072;2022-09-17T03:00:40;20.60;99.90
44573;DHT22;31762;45.420;10.072;2022-09-17T03:05:43;20.70;99.90
44573;DHT22;31762;45.420;10.072;2022-09-17T03:10:46;20.60;99.90
44573;DHT22;31762;45.420;10.072;2022-09-17T03:15:48;20.60;99.90
44573;DHT22;31762;45.420;10.072;2022-09-17T03:20:50;20.40;99.90
44573;DHT22;31762;45.420;10.072;2022-09-17T03:25:52;20.50;99.90
44573;DHT22;31762;45.420;10.072;2022-09-17T03:30:54;20.30;99.90
44573;DHT22;31762;45.420;10.072;2022-09-17T03:35:55;20.40;99.90
44573;DHT22;31762;45.420;10.072;2022-09-17T03:41:02;20.30;99.90
44573;DHT22;31762;45.420;10.072;2022-09-17T03:46:05;20.30;99.90
44573;DHT22;31762;45.420;10.072;2022-09-17T03:51:07;20.20;99.90
44573;DHT22;31762;45.420;10.072;2022-09-17T03:56:08;20.30;99.90
44573;DHT22;31762;45.420;10.072;2022-09-17T04:01:10;19.90;99.90
44573;DHT22;31762;45.420;10.072;2022-09-17T04:06:12;20.20;99.90
44573;DHT22;31762;45.420;10.072;2022-09-17T04:11:14;20.10;99.90
44573;DHT22;31762;45.420;10.072;2022-09-17T04:16:15;20.20;99.90
44573;DHT22;31762;45.420;10.072;2022-09-17T04:21:17;20.20;99.90
44573;DHT22;31762;45.420;10.072;2022-09-17T04:26:19;20.50;99.90
44573;DHT22;31762;45.420;10.072;2022-09-17T04:31:21;20.50;99.90
44573;DHT22;31762;45.420;10.072;2022-09-17T04:36:22;20.40;99.90
44573;DHT22;31762;45.420;10.072;2022-09-17T04:41:24;20.20;99.90
44573;DHT22;31762;45.420;10.072;2022-09-17T04:46:26;20.30;99.90
44573;DHT22;31762;45.420;10.072;2022-09-17T04:51:28;20.30;99.90
44573;DHT22;31762;45.420;10.072;2022-09-17T04:56:30;20.00;99.90
44573;DHT22;31762;45.420;10.072;2022-09-17T05:01:31;19.80;99.90
44573;DHT22;31762;45.420;10.072;2022-09-17T06:37:57;17.40;99.90
44573;DHT22;31762;45.420;10.072;2022-09-17T06:42:59;17.80;99.90
44573;DHT22;31762;45.420;10.072;2022-09-17T06:48:04;17.80;99.90
44573;DHT22;31762;45.420;10.072;2022-09-17T06:53:07;17.70;99.90
44573;DHT22;31762;45.420;10.072;2022-09-17T06:58:09;17.80;99.90
44573;DHT22;31762;45.420;10.072;2022-09-17T07:03:11;17.50;99.90
44573;DHT22;31762;45.420;10.072;2022-09-17T07:08:13;17.50;99.90
44573;DHT22;31762;45.420;10.072;2022-09-17T07:13:15;17.20;99.90
44573;DHT22;31762;45.420;10.072;2022-09-17T07:18:16;17.40;99.90
44573;DHT22;31762;45.420;10.072;2022-09-17T07:23:18;17.30;99.90
44573;DHT22;31762;45.420;10.072;2022-09-17T07:28:20;17.30;99.90
44573;DHT22;31762;45.420;10.072;2022-09-17T07:33:24;17.50;99.90
44573;DHT22;31762;45.420;10.072;2022-09-17T07:38:28;17.60;99.90
44573;DHT22;31762;45.420;10.072;2022-09-17T07:43:32;17.40;99.90
44573;DHT22;31762;45.420;10.072;2022-09-17T07:48:34;17.40;99.90
44573;DHT22;31762;45.420;10.072;2022-09-17T07:53:36;17.50;99.90
44573;DHT22;31762;45.420;10.072;2022-09-17T07:58:38;17.70;99.90
44573;DHT22;31762;45.420;10.072;2022-09-17T08:03:40;17.80;99.90
44573;DHT22;31762;45.420;10.072;2022-09-17T08:08:42;17.90;99.90
44573;DHT22;31762;45.420;10.072;2022-09-17T08:13:48;18.00;99.90
44573;DHT22;31762;45.420;10.072;2022-09-17T08:18:55;17.60;99.90
44573;DHT22;31762;45.420;10.072;2022-09-17T08:23:57;17.80;99.90
44573;DHT22;31762;45.420;10.072;2022-09-17T08:28:59;17.90;99.90
44573;DHT22;31762;45.420;10.072;2022-09-17T08:34:01;18.30;99.90
44573;DHT22;31762;45.420;10.072;2022-09-17T08:39:07;18.60;99.90
44573;DHT22;31762;45.420;10.072;2022-09-17T08:49:35;18.20;99.90
44573;DHT22;31762;45.420;10.072;2022-09-17T09:00:11;18.40;99.90
44573;DHT22;31762;45.420;10.072;2022-09-17T09:05:18;18.30;99.90
44573;DHT22;31762;45.420;10.072;2022-09-17T09:10:22;18.70;99.90
44573;DHT22;31762;45.420;10.072;2022-09-17T09:20:42;18.40;99.90
44573;DHT22;31762;45.420;10.072;2022-09-17T09:36:32;17.70;99.90
44573;DHT22;31762;45.420;10.072;2022-09-17T09:41:42;18.20;99.90
44573;DHT22;31762;45.420;10.072;2022-09-17T09:57:14;18.60;99.90
44573;DHT22;31762;45.420;10.072;2022-09-17T10:02:16;17.90;99.90
44573;DHT22;31762;45.420;10.072;2022-09-17T10:07:18;18.90;99.90
44573;DHT22;31762;45.420;10.072;2022-09-17T10:12:20;19.30;99.90
44573;DHT22;31762;45.420;10.072;2022-09-17T10:17:25;20.30;99.90
44573;DHT22;31762;45.420;10.072;2022-09-17T10:22:31;19.00;99.90
44573;DHT22;31762;45.420;10.072;2022-09-17T10:27:35;20.90;99.90
44573;DHT22;31762;45.420;10.072;2022-09-17T10:32:36;20.90;99.90
44573;DHT22;31762;45.420;10.072;2022-09-17T10:37:46;21.20;99.90
44573;DHT22;31762;45.420;10.072;2022-09-17T10:42:50;19.40;99.90
44573;DHT22;31762;45.420;10.072;2022-09-17T10:47:53;21.10;99.90
44573;DHT22;31762;45.420;10.072;2022-09-17T10:53:01;22.30;99.90
44573;DHT22;31762;45.420;10.072;2022-09-17T11:14:00;21.80;99.90
44573;DHT22;31762;45.420;10.072;2022-09-17T11:19:22;20.90;99.90
44573;DHT22;31762;45.420;10.072;2022-09-17T11:30:18;19.20;99.90
44573;DHT22;31762;45.420;10.072;2022-09-17T11:35:24;18.90;99.90
44573;DHT22;31762;45.420;10.072;2022-09-17T11:40:42;20.00;99.90
44573;DHT22;31762;45.420;10.072;2022-09-17T11:51:14;22.00;99.90
44573;DHT22;31762;45.420;10.072;2022-09-17T11:56:27;23.00;99.90
44573;DHT22;31762;45.420;10.072;2022-09-17T12:01:39;22.30;99.90
44573;DHT22;31762;45.420;10.072;2022-09-17T12:06:52;22.20;99.90
44573;DHT22;31762;45.420;10.072;2022-09-17T12:12:00;21.10;99.90
44573;DHT22;31762;45.420;10.072;2022-09-17T12:17:10;22.30;99.90
44573;DHT22;31762;45.420;10.072;2022-09-17T12:22:20;21.20;99.90
44573;DHT22;31762;45.420;10.072;2022-09-17T12:38:09;20.60;99.90
44573;DHT22;31762;45.420;10.072;2022-09-17T12:43:23;21.40;99.90
44573;DHT22;31762;45.420;10.072;2022-09-17T12:54:01;23.20;99.90
44573;DHT22;31762;45.420;10.072;2022-09-17T12:59:12;24.70;99.90
44573;DHT22;31762;45.420;10.072;2022-09-17T13:25:51;23.20;99.90
44573;DHT22;31762;45.420;10.072;2022-09-17T13:30:59;22.10;99.90
44573;DHT22;31762;45.420;10.072;2022-09-17T13:36:01;21.40;99.90
44573;DHT22;31762;45.420;10.072;2022-09-17T13:41:20;22.60;99.90
44573;DHT22;31762;45.420;10.072;2022-09-17T13:46:25;24.50;99.90
44573;DHT22;31762;45.420;10.072;2022-09-17T13:56:38;24.20;99.90
44573;DHT22;31762;45.420;10.072;2022-09-17T14:06:50;23.90;99.90
44573;DHT22;31762;45.420;10.072;2022-09-17T14:11:52;23.00;99.90
44573;DHT22;31762;45.420;10.072;2022-09-17T14:16:53;24.40;99.90
44573;DHT22;31762;45.420;10.072;2022-09-17T14:22:15;24.20;99.90
44573;DHT22;31762;45.420;10.072;2022-09-17T14:27:45;23.50;99.90
44573;DHT22;31762;45.420;10.072;2022-09-17T14:33:07;24.30;99.90
44573;DHT22;31762;45.420;10.072;2022-09-17T14:48:32;23.20;99.90
44573;DHT22;31762;45.420;10.072;2022-09-17T14:53:34;23.00;99.90
44573;DHT22;31762;45.420;10.072;2022-09-17T14:58:40;23.30;99.90
44573;DHT22;31762;45.420;10.072;2022-09-17T15:03:42;22.60;99.90
44573;DHT22;31762;45.420;10.072;2022-09-17T15:08:44;22.80;99.90
44573;DHT22;31762;45.420;10.072;2022-09-17T15:13:50;22.80;99.90
44573;DHT22;31762;45.420;10.072;2022-09-17T15:18:58;21.30;99.90
44573;DHT22;31762;45.420;10.072;2022-09-17T15:24:14;21.40;99.90
44573;DHT22;31762;45.420;10.072;2022-09-17T15:29:20;21.90;99.90
44573;DHT22;31762;45.420;10.072;2022-09-17T15:34:23;21.50;99.90
44573;DHT22;31762;45.420;10.072;2022-09-17T15:39:36;20.50;99.90
44573;DHT22;31762;45.420;10.072;2022-09-17T15:44:38;20.90;99.90
44573;DHT22;31762;45.420;10.072;2022-09-17T15:49:40;20.70;99.90
44573;DHT22;31762;45.420;10.072;2022-09-17T15:54:41;19.90;99.90
44573;DHT22;31762;45.420;10.072;2022-09-17T15:59:43;20.20;99.90
44573;DHT22;31762;45.420;10.072;2022-09-17T16:04:46;20.70;99.90
44573;DHT22;31762;45.420;10.072;2022-09-17T16:09:50;20.40;99.90
44573;DHT22;31762;45.420;10.072;2022-09-17T16:14:54;20.10;99.90
44573;DHT22;31762;45.420;10.072;2022-09-17T16:19:57;20.60;99.90
44573;DHT22;31762;45.420;10.072;2022-09-17T16:25:05;21.10;99.90
44573;DHT22;31762;45.420;10.072;2022-09-17T16:30:13;20.70;99.90
44573;DHT22;31762;45.420;10.072;2022-09-17T16:35:18;20.60;99.90
44573;DHT22;31762;45.420;10.072;2022-09-17T16:40:22;20.90;99.90
44573;DHT22;31762;45.420;10.072;2022-09-17T16:45:24;21.00;99.90
44573;DHT22;31762;45.420;10.072;2022-09-17T16:50:29;21.00;99.90
44573;DHT22;31762;45.420;10.072;2022-09-17T16:55:32;21.00;99.90
44573;DHT22;31762;45.420;10.072;2022-09-17T17:00:34;21.60;99.90
44573;DHT22;31762;45.420;10.072;2022-09-17T17:05:36;25.10;99.90
44573;DHT22;31762;45.420;10.072;2022-09-17T17:10:38;23.60;99.90
44573;DHT22;31762;45.420;10.072;2022-09-17T17:15:41;22.00;99.90
44573;DHT22;31762;45.420;10.072;2022-09-17T17:20:44;21.30;99.90
44573;DHT22;31762;45.420;10.072;2022-09-17T17:25:46;20.90;99.90
44573;DHT22;31762;45.420;10.072;2022-09-17T17:30:48;20.90;99.90
44573;DHT22;31762;45.420;10.072;2022-09-17T17:35:50;20.70;99.90
44573;DHT22;31762;45.420;10.072;2022-09-17T17:41:10;20.20;99.90
44573;DHT22;31762;45.420;10.072;2022-09-17T17:46:12;20.10;99.90
44573;DHT22;31762;45.420;10.072;2022-09-17T17:51:15;20.00;99.90
44573;DHT22;31762;45.420;10.072;2022-09-17T17:56:17;20.20;99.90
44573;DHT22;31762;45.420;10.072;2022-09-17T18:01:21;20.20;99.90
44573;DHT22;31762;45.420;10.072;2022-09-17T18:06:23;19.20;99.90
44573;DHT22;31762;45.420;10.072;2022-09-17T18:11:26;19.40;99.90
44573;DHT22;31762;45.420;10.072;2022-09-17T18:16:28;19.40;99.90
44573;DHT22;31762;45.420;10.072;2022-09-17T18:21:30;19.10;99.90
44573;DHT22;31762;45.420;10.072;2022-09-17T18:26:32;18.70;99.90
44573;DHT22;31762;45.420;10.072;2022-09-17T18:31:34;18.70;99.90
44573;DHT22;31762;45.420;10.072;2022-09-17T18:36:36;18.80;99.90
44573;DHT22;31762;45.420;10.072;2022-09-17T18:41:39;18.50;99.90
44573;DHT22;31762;45.420;10.072;2022-09-17T18:46:41;18.20;99.90
44573;DHT22;31762;45.420;10.072;2022-09-17T18:51:42;18.30;99.90
44573;DHT22;31762;45.420;10.072;2022-09-17T18:56:44;18.00;99.90
44573;DHT22;31762;45.420;10.072;2022-09-17T19:01:46;18.00;99.90
44573;DHT22;31762;45.420;10.072;2022-09-17T19:06:48;18.40;99.90
44573;DHT22;31762;45.420;10.072;2022-09-17T19:11:50;18.10;99.90
44573;DHT22;31762;45.420;10.072;2022-09-17T19:16:52;17.70;99.90
44573;DHT22;31762;45.420;10.072;2022-09-17T19:21:54;17.90;99.90
44573;DHT22;31762;45.420;10.072;2022-09-17T19:26:56;18.00;99.90
44573;DHT22;31762;45.420;10.072;2022-09-17T19:31:58;18.00;99.90
44573;DHT22;31762;45.420;10.072;2022-09-17T19:37:00;18.00;99.90
44573;DHT22;31762;45.420;10.072;2022-09-17T19:42:02;17.70;99.90
44573;DHT22;31762;45.420;10.072;2022-09-17T19:47:04;17.90;99.90
44573;DHT22;31762;45.420;10.072;2022-09-17T19:52:06;17.60;99.90
44573;DHT22;31762;45.420;10.072;2022-09-17T19:57:07;17.50;99.90
44573;DHT22;31762;45.420;10.072;2022-09-17T20:02:11;17.60;99.90
44573;DHT22;31762;45.420;10.072;2022-09-17T20:07:13;17.30;99.90
44573;DHT22;31762;45.420;10.072;2022-09-17T20:12:15;17.50;99.90
44573;DHT22;31762;45.420;10.072;2022-09-17T20:17:16;17.20;99.90
44573;DHT22;31762;45.420;10.072;2022-09-17T20:22:18;17.10;99.90
44573;DHT22;31762;45.420;10.072;2022-09-17T20:27:20;17.00;99.90
44573;DHT22;31762;45.420;10.072;2022-09-17T20:32:22;17.30;99.90
44573;DHT22;31762;45.420;10.072;2022-09-17T20:37:23;17.60;99.90
44573;DHT22;31762;45.420;10.072;2022-09-17T20:42:45;17.70;99.90
44573;DHT22;31762;45.420;10.072;2022-09-17T20:47:47;17.70;99.90
44573;DHT22;31762;45.420;10.072;2022-09-17T20:52:49;17.30;99.90
44573;DHT22;31762;45.420;10.072;2022-09-17T20:57:51;17.20;99.90
44573;DHT22;31762;45.420;10.072;2022-09-17T21:02:53;17.20;99.90
44573;DHT22;31762;45.420;10.072;2022-09-17T21:07:55;17.10;99.90
44573;DHT22;31762;45.420;10.072;2022-09-17T21:12:57;17.10;99.90
44573;DHT22;31762;45.420;10.072;2022-09-17T21:17:59;17.00;99.90
44573;DHT22;31762;45.420;10.072;2022-09-17T21:23:00;17.30;99.90
44573;DHT22;31762;45.420;10.072;2022-09-17T21:28:02;17.30;99.90
44573;DHT22;31762;45.420;10.072;2022-09-17T21:33:04;17.10;99.90
44573;DHT22;31762;45.420;10.072;2022-09-17T21:38:06;17.30;99.90
44573;DHT22;31762;45.420;10.072;2022-09-17T21:43:07;17.00;99.90
44573;DHT22;31762;45.420;10.072;2022-09-17T21:48:09;17.10;99.90
44573;DHT22;31762;45.420;10.072;2022-09-17T21:53:11;16.90;99.90
44573;DHT22;31762;45.420;10.072;2022-09-17T21:58:12;16.80;99.90
44573;DHT22;31762;45.420;10.072;2022-09-17T22:03:14;16.90;99.90
44573;DHT22;31762;45.420;10.072;2022-09-17T22:08:16;17.10;99.90
44573;DHT22;31762;45.420;10.072;2022-09-17T22:13:18;17.10;99.90
44573;DHT22;31762;45.420;10.072;2022-09-17T22:18:19;17.10;99.90
44573;DHT22;31762;45.420;10.072;2022-09-17T22:23:22;17.10;99.90
44573;DHT22;31762;45.420;10.072;2022-09-17T22:28:24;17.20;99.90
44573;DHT22;31762;45.420;10.072;2022-09-17T22:33:25;17.20;99.90
44573;DHT22;31762;45.420;10.072;2022-09-17T22:38:27;16.50;99.90
44573;DHT22;31762;45.420;10.072;2022-09-17T22:43:29;16.10;99.90
44573;DHT22;31762;45.420;10.072;2022-09-17T22:48:31;15.80;99.90
44573;DHT22;31762;45.420;10.072;2022-09-17T22:53:33;16.10;99.90
44573;DHT22;31762;45.420;10.072;2022-09-17T22:58:35;16.10;99.90
44573;DHT22;31762;45.420;10.072;2022-09-17T23:03:38;16.50;99.90
44573;DHT22;31762;45.420;10.072;2022-09-17T23:08:40;16.70;99.90
44573;DHT22;31762;45.420;10.072;2022-09-17T23:13:42;17.00;99.90
44573;DHT22;31762;45.420;10.072;2022-09-17T23:18:44;17.00;99.90
44573;DHT22;31762;45.420;10.072;2022-09-17T23:23:47;16.80;99.90
44573;DHT22;31762;45.420;10.072;2022-09-17T23:28:49;16.50;99.90
44573;DHT22;31762;45.420;10.072;2022-09-17T23:33:53;17.00;99.90
44573;DHT22;31762;45.420;10.072;2022-09-17T23:38:56;16.40;99.90
44573;DHT22;31762;45.420;10.072;2022-09-17T23:44:00;16.40;99.90
44573;DHT22;31762;45.420;10.072;2022-09-17T23:49:04;15.80;99.90
44573;DHT22;31762;45.420;10.072;2022-09-17T23:54:06;16.40;99.90
44573;DHT22;31762;45.420;10.072;2022-09-17T23:59:09;16.00;99.90
